Anfa — CNA2495 — position and weather

sailwx.info

Track history (hours):
 
Tides and Currents Weather Stations Pressure Air Temp Water Temp Dewpoint Dewpoint Depression Visibility Wind Speed Wind Dir Waves Ship Positions

Anfa

Last reported at 2018-Feb-20 11:08 UTC. Time now 2018-Feb-23 06:33 UTC.
Position N 27°39' W 015°11'.

Length 105 m; draft 6.6 m.

Type: Ship (hazmat cat A). MMSI: 242576000.

Date/timePositionNaut miles runAvg speedWind from/ knotsBaromVisibWave heightAir tempDewpointWater temp
2018-Feb-20 11:08N 27°39' W 015°11'213.2
2018-Feb-20 10:58N 27°41' W 015°11'612.9
2018-Feb-20 10:30N 27°46' W 015°13'613.0
2018-Feb-20 10:00N 27°52' W 015°16'612.6
2018-Feb-20 09:30N 27°58' W 015°19'611.8
2018-Feb-20 09:00N 28°04' W 015°22'5 9.6
2018-Feb-20 08:30N 28°07' W 015°25'1 1.8
2018-Feb-20 07:53N 28°09' W 015°25'0 0.0
2018-Feb-20 07:29N 28°09' W 015°25'0 0.0
2018-Feb-20 06:59N 28°09' W 015°25'0 0.0
2018-Feb-20 06:29N 28°09' W 015°25'0 0.0
2018-Feb-20 05:56N 28°09' W 015°25'0 0.0
2018-Feb-20 05:26N 28°09' W 015°25'0 0.0
2018-Feb-20 04:56N 28°09' W 015°25'0 0.0
2018-Feb-20 04:11N 28°09' W 015°25'0 0.0
2018-Feb-20 03:56N 28°09' W 015°25'0 0.0
2018-Feb-20 03:26N 28°09' W 015°25'0 0.0
2018-Feb-20 02:59N 28°09' W 015°25'0 0.0
2018-Feb-20 02:26N 28°09' W 015°25'0 0.0
2018-Feb-20 01:59N 28°09' W 015°25'0 0.0
2018-Feb-20 01:29N 28°09' W 015°25'0 0.0
2018-Feb-20 00:59N 28°09' W 015°25'0 0.0
2018-Feb-20 00:26N 28°09' W 015°25'0 0.0
2018-Feb-19 23:59N 28°09' W 015°25'0 0.0
2018-Feb-19 23:29N 28°09' W 015°25'0 0.0
2018-Feb-19 22:59N 28°09' W 015°25'0 0.0
2018-Feb-19 22:30N 28°09' W 015°25'1 2.8
2018-Feb-19 22:00N 28°07' W 015°25'3 5.5
2018-Feb-19 21:30N 28°08' W 015°22'1 2.5
2018-Feb-19 21:00N 28°08' W 015°20'1 1.0
2018-Feb-19 20:30N 28°07' W 015°20'1 2.3
2018-Feb-19 20:00N 28°06' W 015°20'1 1.1
2018-Feb-19 19:30N 28°07' W 015°20'1 1.0
2018-Feb-19 19:00N 28°07' W 015°20'0 0.8
2018-Feb-19 18:30N 28°08' W 015°20'3 6.9
2018-Feb-19 18:00N 28°11' W 015°19'612.5
2018-Feb-19 17:30N 28°16' W 015°14'712.7
2018-Feb-19 17:00N 28°20' W 015°09'612.6
2018-Feb-19 16:30N 28°25' W 015°04'612.9
2018-Feb-19 16:00N 28°29' W 014°59'713.1
2018-Feb-19 15:28N 28°35' W 014°53'612.6
2018-Feb-19 15:00N 28°39' W 014°49'  
2018-Feb-15 16:22N 37°33' W 001°06'  
2018-Feb-12 21:05N 37°32' W 001°06'310.5
2018-Feb-12 20:49N 37°29' W 001°07'21512.2
2018-Feb-12 03:13N 35°60' W 005°12'315.5
2018-Feb-12 03:00N 35°59' W 005°16'815.5
2018-Feb-12 02:30N 35°58' W 005°26'1016.0
2018-Feb-12 01:52N 35°55' W 005°38'  
Track history (hours):
 
Tides and Currents Weather Stations Pressure Air Temp Water Temp Dewpoint Dewpoint Depression Visibility Wind Speed Wind Dir Waves Ship Positions

Anfa

Last reported at 2018-Feb-20 11:08 UTC. Time now 2018-Feb-23 06:33 UTC.
Position N 27°39' W 015°11'.

Length 105 m; draft 6.6 m.

Type: Ship (hazmat cat A). MMSI: 242576000.

Date/timePositionNaut miles runAvg speedWind from/ knotsBaromVisibWave heightAir tempDewpointWater temp
2018-Feb-20 11:08N 27°39' W 015°11'213.2
2018-Feb-20 10:58N 27°41' W 015°11'612.9
2018-Feb-20 10:30N 27°46' W 015°13'613.0
2018-Feb-20 10:00N 27°52' W 015°16'612.6
2018-Feb-20 09:30N 27°58' W 015°19'611.8
2018-Feb-20 09:00N 28°04' W 015°22'5 9.6
2018-Feb-20 08:30N 28°07' W 015°25'1 1.8
2018-Feb-20 07:53N 28°09' W 015°25'0 0.0
2018-Feb-20 07:29N 28°09' W 015°25'0 0.0
2018-Feb-20 06:59N 28°09' W 015°25'0 0.0
2018-Feb-20 06:29N 28°09' W 015°25'0 0.0
2018-Feb-20 05:56N 28°09' W 015°25'0 0.0
2018-Feb-20 05:26N 28°09' W 015°25'0 0.0
2018-Feb-20 04:56N 28°09' W 015°25'0 0.0
2018-Feb-20 04:11N 28°09' W 015°25'0 0.0
2018-Feb-20 03:56N 28°09' W 015°25'0 0.0
2018-Feb-20 03:26N 28°09' W 015°25'0 0.0
2018-Feb-20 02:59N 28°09' W 015°25'0 0.0
2018-Feb-20 02:26N 28°09' W 015°25'0 0.0
2018-Feb-20 01:59N 28°09' W 015°25'0 0.0
2018-Feb-20 01:29N 28°09' W 015°25'0 0.0
2018-Feb-20 00:59N 28°09' W 015°25'0 0.0
2018-Feb-20 00:26N 28°09' W 015°25'0 0.0
2018-Feb-19 23:59N 28°09' W 015°25'0 0.0
2018-Feb-19 23:29N 28°09' W 015°25'0 0.0
2018-Feb-19 22:59N 28°09' W 015°25'0 0.0
2018-Feb-19 22:30N 28°09' W 015°25'1 2.8
2018-Feb-19 22:00N 28°07' W 015°25'3 5.5
2018-Feb-19 21:30N 28°08' W 015°22'1 2.5
2018-Feb-19 21:00N 28°08' W 015°20'1 1.0
2018-Feb-19 20:30N 28°07' W 015°20'1 2.3
2018-Feb-19 20:00N 28°06' W 015°20'1 1.1
2018-Feb-19 19:30N 28°07' W 015°20'1 1.0
2018-Feb-19 19:00N 28°07' W 015°20'0 0.8
2018-Feb-19 18:30N 28°08' W 015°20'3 6.9
2018-Feb-19 18:00N 28°11' W 015°19'612.5
2018-Feb-19 17:30N 28°16' W 015°14'712.7
2018-Feb-19 17:00N 28°20' W 015°09'612.6
2018-Feb-19 16:30N 28°25' W 015°04'612.9
2018-Feb-19 16:00N 28°29' W 014°59'713.1
2018-Feb-19 15:28N 28°35' W 014°53'612.6
2018-Feb-19 15:00N 28°39' W 014°49'  
2018-Feb-15 16:22N 37°33' W 001°06'  
2018-Feb-12 21:05N 37°32' W 001°06'310.5
2018-Feb-12 20:49N 37°29' W 001°07'21512.2
2018-Feb-12 03:13N 35°60' W 005°12'315.5
2018-Feb-12 03:00N 35°59' W 005°16'815.5
2018-Feb-12 02:30N 35°58' W 005°26'1016.0
2018-Feb-12 01:52N 35°55' W 005°38'  

Dump ship's entire track history